sensor_id;sensor_type;location;lat;lon;timestamp;temperature;humidity
25192;DHT22;13143;50.924;5.320;2023-03-19T00:02:13;13.00;99.90
25192;DHT22;13143;50.924;5.320;2023-03-19T00:04:39;13.00;99.90
25192;DHT22;13143;50.924;5.320;2023-03-19T00:07:14;13.00;99.90
25192;DHT22;13143;50.924;5.320;2023-03-19T00:09:41;13.00;99.90
25192;DHT22;13143;50.924;5.320;2023-03-19T00:12:07;13.00;99.90
25192;DHT22;13143;50.924;5.320;2023-03-19T00:14:33;13.00;99.90
25192;DHT22;13143;50.924;5.320;2023-03-19T00:16:59;13.00;99.90
25192;DHT22;13143;50.924;5.320;2023-03-19T00:19:25;13.00;99.90
25192;DHT22;13143;50.924;5.320;2023-03-19T00:21:51;12.90;99.90
25192;DHT22;13143;50.924;5.320;2023-03-19T00:24:17;12.90;99.90
25192;DHT22;13143;50.924;5.320;2023-03-19T00:26:43;12.90;99.90
25192;DHT22;13143;50.924;5.320;2023-03-19T00:29:09;12.90;99.90
25192;DHT22;13143;50.924;5.320;2023-03-19T00:31:35;12.90;99.90
25192;DHT22;13143;50.924;5.320;2023-03-19T00:34:01;12.90;99.90
25192;DHT22;13143;50.924;5.320;2023-03-19T00:36:27;12.90;99.90
25192;DHT22;13143;50.924;5.320;2023-03-19T00:38:54;12.90;99.90
25192;DHT22;13143;50.924;5.320;2023-03-19T00:41:20;12.90;99.90
25192;DHT22;13143;50.924;5.320;2023-03-19T00:43:51;12.80;99.90
25192;DHT22;13143;50.924;5.320;2023-03-19T00:46:17;12.80;99.90
25192;DHT22;13143;50.924;5.320;2023-03-19T00:48:43;12.80;99.90
25192;DHT22;13143;50.924;5.320;2023-03-19T00:51:09;12.80;99.90
25192;DHT22;13143;50.924;5.320;2023-03-19T00:53:40;12.80;99.90
25192;DHT22;13143;50.924;5.320;2023-03-19T00:56:07;12.80;99.90
25192;DHT22;13143;50.924;5.320;2023-03-19T00:58:33;12.80;99.90
25192;DHT22;13143;50.924;5.320;2023-03-19T01:01:00;12.80;99.90
25192;DHT22;13143;50.924;5.320;2023-03-19T01:03:26;12.80;99.90
25192;DHT22;13143;50.924;5.320;2023-03-19T01:05:52;12.80;99.90
25192;DHT22;13143;50.924;5.320;2023-03-19T01:08:18;12.80;99.90
25192;DHT22;13143;50.924;5.320;2023-03-19T01:10:44;12.80;99.90
25192;DHT22;13143;50.924;5.320;2023-03-19T01:13:11;12.80;99.90
25192;DHT22;13143;50.924;5.320;2023-03-19T01:15:38;12.80;99.90
25192;DHT22;13143;50.924;5.320;2023-03-19T01:18:04;12.80;99.90
25192;DHT22;13143;50.924;5.320;2023-03-19T01:20:30;12.80;99.90
25192;DHT22;13143;50.924;5.320;2023-03-19T01:22:56;12.80;99.90
25192;DHT22;13143;50.924;5.320;2023-03-19T01:25:22;12.80;99.90
25192;DHT22;13143;50.924;5.320;2023-03-19T01:27:47;12.80;99.90
25192;DHT22;13143;50.924;5.320;2023-03-19T01:30:13;12.80;99.90
25192;DHT22;13143;50.924;5.320;2023-03-19T01:32:39;12.80;99.90
25192;DHT22;13143;50.924;5.320;2023-03-19T01:35:05;12.80;99.90
25192;DHT22;13143;50.924;5.320;2023-03-19T01:37:32;12.80;99.90
25192;DHT22;13143;50.924;5.320;2023-03-19T01:39:58;12.80;99.90
25192;DHT22;13143;50.924;5.320;2023-03-19T01:42:23;12.80;99.90
25192;DHT22;13143;50.924;5.320;2023-03-19T01:44:50;12.80;99.90
25192;DHT22;13143;50.924;5.320;2023-03-19T01:49:54;12.80;99.90
25192;DHT22;13143;50.924;5.320;2023-03-19T01:52:22;12.80;99.90
25192;DHT22;13143;50.924;5.320;2023-03-19T01:54:49;12.80;99.90
25192;DHT22;13143;50.924;5.320;2023-03-19T01:57:18;12.80;99.90
25192;DHT22;13143;50.924;5.320;2023-03-19T01:59:54;12.70;99.90
25192;DHT22;13143;50.924;5.320;2023-03-19T02:02:31;12.70;99.90
25192;DHT22;13143;50.924;5.320;2023-03-19T02:05:10;12.80;99.90
25192;DHT22;13143;50.924;5.320;2023-03-19T02:07:38;12.80;99.90
25192;DHT22;13143;50.924;5.320;2023-03-19T02:10:07;12.80;99.90
25192;DHT22;13143;50.924;5.320;2023-03-19T02:12:34;12.80;99.90
25192;DHT22;13143;50.924;5.320;2023-03-19T02:14:59;12.80;99.90
25192;DHT22;13143;50.924;5.320;2023-03-19T02:17:27;12.80;99.90
25192;DHT22;13143;50.924;5.320;2023-03-19T02:25:55;12.80;99.90
25192;DHT22;13143;50.924;5.320;2023-03-19T02:28:19;12.80;99.90
25192;DHT22;13143;50.924;5.320;2023-03-19T02:30:46;12.80;99.90
25192;DHT22;13143;50.924;5.320;2023-03-19T02:33:15;12.80;99.90
25192;DHT22;13143;50.924;5.320;2023-03-19T02:35:44;12.80;99.90
25192;DHT22;13143;50.924;5.320;2023-03-19T02:38:11;12.80;99.90
25192;DHT22;13143;50.924;5.320;2023-03-19T02:40:57;12.80;99.90
25192;DHT22;13143;50.924;5.320;2023-03-19T02:43:24;12.80;99.90
25192;DHT22;13143;50.924;5.320;2023-03-19T02:45:50;12.80;99.90
25192;DHT22;13143;50.924;5.320;2023-03-19T02:48:16;12.80;99.90
25192;DHT22;13143;50.924;5.320;2023-03-19T02:50:42;12.80;99.90
25192;DHT22;13143;50.924;5.320;2023-03-19T02:53:07;12.80;99.90
25192;DHT22;13143;50.924;5.320;2023-03-19T02:55:34;12.80;99.90
25192;DHT22;13143;50.924;5.320;2023-03-19T02:58:00;12.80;99.90
25192;DHT22;13143;50.924;5.320;2023-03-19T03:00:25;12.80;99.90
25192;DHT22;13143;50.924;5.320;2023-03-19T03:02:53;12.80;99.90
25192;DHT22;13143;50.924;5.320;2023-03-19T03:05:20;12.80;99.90
25192;DHT22;13143;50.924;5.320;2023-03-19T03:07:46;12.80;99.90
25192;DHT22;13143;50.924;5.320;2023-03-19T03:10:11;12.80;99.90
25192;DHT22;13143;50.924;5.320;2023-03-19T03:12:37;12.80;99.90
25192;DHT22;13143;50.924;5.320;2023-03-19T03:15:05;12.80;99.90
25192;DHT22;13143;50.924;5.320;2023-03-19T03:17:31;12.80;99.90
25192;DHT22;13143;50.924;5.320;2023-03-19T03:19:56;12.80;99.90
25192;DHT22;13143;50.924;5.320;2023-03-19T03:22:22;12.80;99.90
25192;DHT22;13143;50.924;5.320;2023-03-19T03:24:47;12.80;99.90
25192;DHT22;13143;50.924;5.320;2023-03-19T03:27:13;12.80;99.90
25192;DHT22;13143;50.924;5.320;2023-03-19T03:29:39;12.80;99.90
25192;DHT22;13143;50.924;5.320;2023-03-19T03:32:06;12.80;99.90
25192;DHT22;13143;50.924;5.320;2023-03-19T03:34:31;12.80;99.90
25192;DHT22;13143;50.924;5.320;2023-03-19T03:36:57;12.80;99.90
25192;DHT22;13143;50.924;5.320;2023-03-19T03:39:22;12.80;99.90
25192;DHT22;13143;50.924;5.320;2023-03-19T03:41:48;12.80;99.90
25192;DHT22;13143;50.924;5.320;2023-03-19T03:44:14;12.80;99.90
25192;DHT22;13143;50.924;5.320;2023-03-19T03:46:40;12.80;99.90
25192;DHT22;13143;50.924;5.320;2023-03-19T03:49:07;12.80;99.90
25192;DHT22;13143;50.924;5.320;2023-03-19T03:51:33;12.80;99.90
25192;DHT22;13143;50.924;5.320;2023-03-19T03:53:59;12.80;99.90
25192;DHT22;13143;50.924;5.320;2023-03-19T03:56:25;12.80;99.90
25192;DHT22;13143;50.924;5.320;2023-03-19T03:58:51;12.80;99.90
25192;DHT22;13143;50.924;5.320;2023-03-19T04:01:18;12.80;99.90
25192;DHT22;13143;50.924;5.320;2023-03-19T04:03:44;12.80;99.90
25192;DHT22;13143;50.924;5.320;2023-03-19T04:06:18;12.80;99.90
25192;DHT22;13143;50.924;5.320;2023-03-19T04:08:44;12.80;99.90
25192;DHT22;13143;50.924;5.320;2023-03-19T04:11:10;12.80;99.90
25192;DHT22;13143;50.924;5.320;2023-03-19T04:13:36;12.80;99.90
25192;DHT22;13143;50.924;5.320;2023-03-19T04:16:06;12.80;99.90
25192;DHT22;13143;50.924;5.320;2023-03-19T04:18:33;12.80;99.90
25192;DHT22;13143;50.924;5.320;2023-03-19T04:20:59;12.80;99.90
25192;DHT22;13143;50.924;5.320;2023-03-19T04:23:25;12.80;99.90
25192;DHT22;13143;50.924;5.320;2023-03-19T04:25:50;12.80;99.90
25192;DHT22;13143;50.924;5.320;2023-03-19T04:28:16;12.80;99.90
25192;DHT22;13143;50.924;5.320;2023-03-19T04:30:42;12.80;99.90
25192;DHT22;13143;50.924;5.320;2023-03-19T04:33:09;12.80;99.90
25192;DHT22;13143;50.924;5.320;2023-03-19T04:35:35;12.70;99.90
25192;DHT22;13143;50.924;5.320;2023-03-19T04:38:01;12.80;99.90
25192;DHT22;13143;50.924;5.320;2023-03-19T04:40:27;12.70;99.90
25192;DHT22;13143;50.924;5.320;2023-03-19T04:42:53;12.70;99.90
25192;DHT22;13143;50.924;5.320;2023-03-19T04:45:19;12.70;99.90
25192;DHT22;13143;50.924;5.320;2023-03-19T04:47:45;12.70;99.90
25192;DHT22;13143;50.924;5.320;2023-03-19T04:50:11;12.70;99.90
25192;DHT22;13143;50.924;5.320;2023-03-19T04:52:37;12.70;99.90
25192;DHT22;13143;50.924;5.320;2023-03-19T04:55:04;12.70;99.90
25192;DHT22;13143;50.924;5.320;2023-03-19T04:57:31;12.70;99.90
25192;DHT22;13143;50.924;5.320;2023-03-19T04:59:57;12.70;99.90
25192;DHT22;13143;50.924;5.320;2023-03-19T05:02:22;12.70;99.90
25192;DHT22;13143;50.924;5.320;2023-03-19T05:04:48;12.70;99.90
25192;DHT22;13143;50.924;5.320;2023-03-19T05:07:14;12.70;99.90
25192;DHT22;13143;50.924;5.320;2023-03-19T05:09:39;12.70;99.90
25192;DHT22;13143;50.924;5.320;2023-03-19T05:12:07;12.70;99.90
25192;DHT22;13143;50.924;5.320;2023-03-19T05:14:33;12.70;99.90
25192;DHT22;13143;50.924;5.320;2023-03-19T05:16:59;12.70;99.90
25192;DHT22;13143;50.924;5.320;2023-03-19T05:19:25;12.60;99.90
25192;DHT22;13143;50.924;5.320;2023-03-19T05:21:50;12.60;99.90
25192;DHT22;13143;50.924;5.320;2023-03-19T05:24:16;12.60;99.90
25192;DHT22;13143;50.924;5.320;2023-03-19T05:26:42;12.60;99.90
25192;DHT22;13143;50.924;5.320;2023-03-19T05:29:08;12.60;99.90
25192;DHT22;13143;50.924;5.320;2023-03-19T05:31:36;12.60;99.90
25192;DHT22;13143;50.924;5.320;2023-03-19T05:34:02;12.60;99.90
25192;DHT22;13143;50.924;5.320;2023-03-19T05:36:28;12.60;99.90
25192;DHT22;13143;50.924;5.320;2023-03-19T05:38:54;12.60;99.90
25192;DHT22;13143;50.924;5.320;2023-03-19T05:41:20;12.60;99.90
25192;DHT22;13143;50.924;5.320;2023-03-19T05:43:46;12.60;99.90
25192;DHT22;13143;50.924;5.320;2023-03-19T05:46:12;12.60;99.90
25192;DHT22;13143;50.924;5.320;2023-03-19T05:48:37;12.60;99.90
25192;DHT22;13143;50.924;5.320;2023-03-19T05:51:03;12.60;99.90
25192;DHT22;13143;50.924;5.320;2023-03-19T05:53:29;12.60;99.90
25192;DHT22;13143;50.924;5.320;2023-03-19T05:55:55;12.50;99.90
25192;DHT22;13143;50.924;5.320;2023-03-19T05:58:20;12.50;99.90
25192;DHT22;13143;50.924;5.320;2023-03-19T06:00:46;12.50;99.90
25192;DHT22;13143;50.924;5.320;2023-03-19T06:03:13;12.50;99.90
25192;DHT22;13143;50.924;5.320;2023-03-19T06:05:39;12.50;99.90
25192;DHT22;13143;50.924;5.320;2023-03-19T06:08:04;12.50;99.90
25192;DHT22;13143;50.924;5.320;2023-03-19T06:10:31;12.60;99.90
25192;DHT22;13143;50.924;5.320;2023-03-19T06:12:58;12.50;99.90
25192;DHT22;13143;50.924;5.320;2023-03-19T06:15:23;12.50;99.90
25192;DHT22;13143;50.924;5.320;2023-03-19T06:17:49;12.50;99.90
25192;DHT22;13143;50.924;5.320;2023-03-19T06:20:15;12.50;99.90
25192;DHT22;13143;50.924;5.320;2023-03-19T06:22:41;12.50;99.90
25192;DHT22;13143;50.924;5.320;2023-03-19T06:25:07;12.50;99.90
25192;DHT22;13143;50.924;5.320;2023-03-19T06:27:32;12.50;99.90
25192;DHT22;13143;50.924;5.320;2023-03-19T06:29:58;12.50;99.90
25192;DHT22;13143;50.924;5.320;2023-03-19T06:32:24;12.50;99.90
25192;DHT22;13143;50.924;5.320;2023-03-19T06:34:49;12.50;99.90
25192;DHT22;13143;50.924;5.320;2023-03-19T06:37:15;12.50;99.90
25192;DHT22;13143;50.924;5.320;2023-03-19T06:39:41;12.50;99.90
25192;DHT22;13143;50.924;5.320;2023-03-19T06:42:07;12.50;99.90
25192;DHT22;13143;50.924;5.320;2023-03-19T06:44:32;12.50;99.90
25192;DHT22;13143;50.924;5.320;2023-03-19T06:46:58;12.50;99.90
25192;DHT22;13143;50.924;5.320;2023-03-19T06:49:23;12.50;99.90
25192;DHT22;13143;50.924;5.320;2023-03-19T06:51:49;12.50;99.90
25192;DHT22;13143;50.924;5.320;2023-03-19T06:54:15;12.50;99.90
25192;DHT22;13143;50.924;5.320;2023-03-19T06:56:41;12.50;99.90
25192;DHT22;13143;50.924;5.320;2023-03-19T06:59:07;12.50;99.90
25192;DHT22;13143;50.924;5.320;2023-03-19T07:01:36;12.50;99.90
25192;DHT22;13143;50.924;5.320;2023-03-19T07:04:02;12.50;99.90
25192;DHT22;13143;50.924;5.320;2023-03-19T07:06:27;12.50;99.90
25192;DHT22;13143;50.924;5.320;2023-03-19T07:08:54;12.50;99.90
25192;DHT22;13143;50.924;5.320;2023-03-19T07:11:20;12.50;99.90
25192;DHT22;13143;50.924;5.320;2023-03-19T07:13:46;12.50;99.90
25192;DHT22;13143;50.924;5.320;2023-03-19T07:16:11;12.50;99.90
25192;DHT22;13143;50.924;5.320;2023-03-19T07:18:37;12.50;99.90
25192;DHT22;13143;50.924;5.320;2023-03-19T07:21:03;12.50;99.90
25192;DHT22;13143;50.924;5.320;2023-03-19T07:23:29;12.50;99.90
25192;DHT22;13143;50.924;5.320;2023-03-19T07:25:54;12.50;99.90
25192;DHT22;13143;50.924;5.320;2023-03-19T07:28:20;12.50;99.90
25192;DHT22;13143;50.924;5.320;2023-03-19T07:30:46;12.50;99.90
25192;DHT22;13143;50.924;5.320;2023-03-19T07:33:11;12.50;99.90
25192;DHT22;13143;50.924;5.320;2023-03-19T07:35:37;12.50;99.90
25192;DHT22;13143;50.924;5.320;2023-03-19T07:38:03;12.50;99.90
25192;DHT22;13143;50.924;5.320;2023-03-19T07:40:28;12.50;99.90
25192;DHT22;13143;50.924;5.320;2023-03-19T07:42:54;12.60;99.90
25192;DHT22;13143;50.924;5.320;2023-03-19T07:45:21;12.60;99.90
25192;DHT22;13143;50.924;5.320;2023-03-19T07:47:49;12.60;99.90
25192;DHT22;13143;50.924;5.320;2023-03-19T07:50:16;12.60;99.90
25192;DHT22;13143;50.924;5.320;2023-03-19T07:52:47;12.60;99.90
25192;DHT22;13143;50.924;5.320;2023-03-19T07:55:13;12.60;99.90
25192;DHT22;13143;50.924;5.320;2023-03-19T07:57:39;12.70;99.90
25192;DHT22;13143;50.924;5.320;2023-03-19T08:00:05;12.70;99.90
25192;DHT22;13143;50.924;5.320;2023-03-19T08:02:32;12.70;99.90
25192;DHT22;13143;50.924;5.320;2023-03-19T08:04:58;12.70;99.90
25192;DHT22;13143;50.924;5.320;2023-03-19T08:07:26;12.70;99.90
25192;DHT22;13143;50.924;5.320;2023-03-19T08:09:52;12.70;99.90
25192;DHT22;13143;50.924;5.320;2023-03-19T08:12:18;12.70;99.90
25192;DHT22;13143;50.924;5.320;2023-03-19T08:14:43;12.80;99.90
25192;DHT22;13143;50.924;5.320;2023-03-19T08:17:09;12.80;99.90
25192;DHT22;13143;50.924;5.320;2023-03-19T08:19:35;12.80;99.90
25192;DHT22;13143;50.924;5.320;2023-03-19T08:22:01;12.80;99.90
25192;DHT22;13143;50.924;5.320;2023-03-19T08:24:27;12.80;99.90
25192;DHT22;13143;50.924;5.320;2023-03-19T08:26:52;12.80;99.90
25192;DHT22;13143;50.924;5.320;2023-03-19T08:29:18;12.90;99.90
25192;DHT22;13143;50.924;5.320;2023-03-19T08:31:43;12.90;99.90
25192;DHT22;13143;50.924;5.320;2023-03-19T08:34:09;12.90;99.90
25192;DHT22;13143;50.924;5.320;2023-03-19T08:36:35;12.90;99.90
25192;DHT22;13143;50.924;5.320;2023-03-19T08:39:01;12.90;99.90
25192;DHT22;13143;50.924;5.320;2023-03-19T08:41:27;12.90;99.90
25192;DHT22;13143;50.924;5.320;2023-03-19T08:43:52;12.90;99.90
25192;DHT22;13143;50.924;5.320;2023-03-19T08:46:18;13.00;99.90
25192;DHT22;13143;50.924;5.320;2023-03-19T08:48:43;12.90;99.90
25192;DHT22;13143;50.924;5.320;2023-03-19T08:51:10;13.00;99.90
25192;DHT22;13143;50.924;5.320;2023-03-19T08:53:36;13.00;99.90
25192;DHT22;13143;50.924;5.320;2023-03-19T08:56:04;13.00;99.90
25192;DHT22;13143;50.924;5.320;2023-03-19T08:58:30;13.00;99.90
25192;DHT22;13143;50.924;5.320;2023-03-19T09:01:04;13.00;99.90
25192;DHT22;13143;50.924;5.320;2023-03-19T09:03:30;13.00;99.90
25192;DHT22;13143;50.924;5.320;2023-03-19T09:06:00;13.00;99.90
25192;DHT22;13143;50.924;5.320;2023-03-19T09:08:27;13.00;99.90
25192;DHT22;13143;50.924;5.320;2023-03-19T09:10:57;13.00;99.90
25192;DHT22;13143;50.924;5.320;2023-03-19T09:13:23;13.10;99.90
25192;DHT22;13143;50.924;5.320;2023-03-19T09:15:49;13.10;99.90
25192;DHT22;13143;50.924;5.320;2023-03-19T09:18:15;13.10;99.90
25192;DHT22;13143;50.924;5.320;2023-03-19T09:20:41;13.10;99.90
25192;DHT22;13143;50.924;5.320;2023-03-19T09:23:07;13.10;99.90
25192;DHT22;13143;50.924;5.320;2023-03-19T09:25:33;13.10;99.90
25192;DHT22;13143;50.924;5.320;2023-03-19T09:27:59;13.10;99.90
25192;DHT22;13143;50.924;5.320;2023-03-19T09:30:25;13.10;99.90
25192;DHT22;13143;50.924;5.320;2023-03-19T09:32:51;13.10;99.90
25192;DHT22;13143;50.924;5.320;2023-03-19T09:35:17;13.10;99.90
25192;DHT22;13143;50.924;5.320;2023-03-19T09:37:43;13.10;99.90
25192;DHT22;13143;50.924;5.320;2023-03-19T09:40:40;13.20;99.90
25192;DHT22;13143;50.924;5.320;2023-03-19T09:45:33;13.20;99.90
25192;DHT22;13143;50.924;5.320;2023-03-19T09:48:04;13.20;99.90
25192;DHT22;13143;50.924;5.320;2023-03-19T09:50:31;13.20;99.90
25192;DHT22;13143;50.924;5.320;2023-03-19T09:53:12;13.20;99.90
25192;DHT22;13143;50.924;5.320;2023-03-19T09:55:46;13.20;99.90
25192;DHT22;13143;50.924;5.320;2023-03-19T10:00:41;13.30;99.90
25192;DHT22;13143;50.924;5.320;2023-03-19T10:03:26;13.30;99.90
25192;DHT22;13143;50.924;5.320;2023-03-19T10:14:45;13.30;99.90
25192;DHT22;13143;50.924;5.320;2023-03-19T10:17:20;13.40;99.90
25192;DHT22;13143;50.924;5.320;2023-03-19T10:20:06;13.40;99.90
25192;DHT22;13143;50.924;5.320;2023-03-19T10:23:02;13.40;99.90
25192;DHT22;13143;50.924;5.320;2023-03-19T10:25:33;13.40;99.90
25192;DHT22;13143;50.924;5.320;2023-03-19T10:28:14;13.50;99.90
25192;DHT22;13143;50.924;5.320;2023-03-19T10:30:41;13.50;99.90
25192;DHT22;13143;50.924;5.320;2023-03-19T10:33:21;13.50;99.90
25192;DHT22;13143;50.924;5.320;2023-03-19T10:35:56;13.50;99.90
25192;DHT22;13143;50.924;5.320;2023-03-19T10:38:24;13.50;99.90
25192;DHT22;13143;50.924;5.320;2023-03-19T10:43:30;13.60;99.90
25192;DHT22;13143;50.924;5.320;2023-03-19T10:45:56;13.60;99.90
25192;DHT22;13143;50.924;5.320;2023-03-19T10:48:25;13.70;99.90
25192;DHT22;13143;50.924;5.320;2023-03-19T10:50:59;13.70;99.90
25192;DHT22;13143;50.924;5.320;2023-03-19T10:53:35;13.70;99.90
25192;DHT22;13143;50.924;5.320;2023-03-19T10:58:40;13.70;99.90
25192;DHT22;13143;50.924;5.320;2023-03-19T11:01:11;13.70;99.90
25192;DHT22;13143;50.924;5.320;2023-03-19T11:03:51;13.80;99.90
25192;DHT22;13143;50.924;5.320;2023-03-19T11:06:31;13.80;99.90
25192;DHT22;13143;50.924;5.320;2023-03-19T11:09:00;13.80;99.90
25192;DHT22;13143;50.924;5.320;2023-03-19T11:11:33;13.90;99.90
25192;DHT22;13143;50.924;5.320;2023-03-19T11:14:07;13.90;99.90
25192;DHT22;13143;50.924;5.320;2023-03-19T11:16:49;13.90;99.90
25192;DHT22;13143;50.924;5.320;2023-03-19T11:19:24;13.90;99.90
25192;DHT22;13143;50.924;5.320;2023-03-19T11:24:39;14.00;99.90
25192;DHT22;13143;50.924;5.320;2023-03-19T11:27:07;14.00;99.90
25192;DHT22;13143;50.924;5.320;2023-03-19T11:29:41;14.00;99.90
25192;DHT22;13143;50.924;5.320;2023-03-19T11:34:53;14.10;99.90
25192;DHT22;13143;50.924;5.320;2023-03-19T11:40:13;14.10;99.90
25192;DHT22;13143;50.924;5.320;2023-03-19T11:42:58;14.10;99.90
25192;DHT22;13143;50.924;5.320;2023-03-19T11:50:59;14.20;99.90
25192;DHT22;13143;50.924;5.320;2023-03-19T11:53:59;14.20;99.90
25192;DHT22;13143;50.924;5.320;2023-03-19T11:59:23;14.20;99.90
25192;DHT22;13143;50.924;5.320;2023-03-19T12:10:41;14.40;99.90
25192;DHT22;13143;50.924;5.320;2023-03-19T12:22:12;14.50;99.90
25192;DHT22;13143;50.924;5.320;2023-03-19T12:27:47;14.50;99.90
25192;DHT22;13143;50.924;5.320;2023-03-19T12:30:31;14.60;99.90
25192;DHT22;13143;50.924;5.320;2023-03-19T12:35:54;14.60;99.90
25192;DHT22;13143;50.924;5.320;2023-03-19T12:38:28;14.60;99.90
25192;DHT22;13143;50.924;5.320;2023-03-19T12:40:59;14.60;99.90
25192;DHT22;13143;50.924;5.320;2023-03-19T12:43:31;14.60;99.90
25192;DHT22;13143;50.924;5.320;2023-03-19T12:49:28;14.60;99.90
25192;DHT22;13143;50.924;5.320;2023-03-19T12:52:45;14.70;99.90
25192;DHT22;13143;50.924;5.320;2023-03-19T13:00:18;14.70;99.90
25192;DHT22;13143;50.924;5.320;2023-03-19T13:03:06;14.70;99.90
25192;DHT22;13143;50.924;5.320;2023-03-19T13:08:31;14.70;99.90
25192;DHT22;13143;50.924;5.320;2023-03-19T13:10:59;14.80;99.90
25192;DHT22;13143;50.924;5.320;2023-03-19T13:13:44;14.80;99.90
25192;DHT22;13143;50.924;5.320;2023-03-19T13:16:40;14.80;99.90
25192;DHT22;13143;50.924;5.320;2023-03-19T13:19:22;14.90;99.90
25192;DHT22;13143;50.924;5.320;2023-03-19T13:21:51;14.90;99.90
25192;DHT22;13143;50.924;5.320;2023-03-19T13:24:37;14.90;99.90
25192;DHT22;13143;50.924;5.320;2023-03-19T13:27:06;14.90;99.90
25192;DHT22;13143;50.924;5.320;2023-03-19T13:29:35;14.90;99.90
25192;DHT22;13143;50.924;5.320;2023-03-19T13:32:08;14.90;99.90
25192;DHT22;13143;50.924;5.320;2023-03-19T13:34:46;14.90;99.90
25192;DHT22;13143;50.924;5.320;2023-03-19T13:37:13;14.90;99.90
25192;DHT22;13143;50.924;5.320;2023-03-19T13:39:40;15.00;99.90
25192;DHT22;13143;50.924;5.320;2023-03-19T13:42:34;15.00;99.90
25192;DHT22;13143;50.924;5.320;2023-03-19T13:47:56;15.00;99.90
25192;DHT22;13143;50.924;5.320;2023-03-19T13:50:28;15.00;99.90
25192;DHT22;13143;50.924;5.320;2023-03-19T13:56:20;15.00;99.90
25192;DHT22;13143;50.924;5.320;2023-03-19T13:58:51;15.00;99.90
25192;DHT22;13143;50.924;5.320;2023-03-19T14:04:02;15.00;99.90
25192;DHT22;13143;50.924;5.320;2023-03-19T14:08:57;15.00;99.90
25192;DHT22;13143;50.924;5.320;2023-03-19T14:11:24;15.00;99.90
25192;DHT22;13143;50.924;5.320;2023-03-19T14:13:53;15.00;99.90
25192;DHT22;13143;50.924;5.320;2023-03-19T14:16:32;15.00;99.90
25192;DHT22;13143;50.924;5.320;2023-03-19T14:19:01;15.00;99.90
25192;DHT22;13143;50.924;5.320;2023-03-19T14:21:44;15.00;99.90
25192;DHT22;13143;50.924;5.320;2023-03-19T14:26:52;15.00;99.90
25192;DHT22;13143;50.924;5.320;2023-03-19T14:29:21;15.00;99.90
25192;DHT22;13143;50.924;5.320;2023-03-19T14:31:53;15.00;99.90
25192;DHT22;13143;50.924;5.320;2023-03-19T14:34:27;15.00;99.90
25192;DHT22;13143;50.924;5.320;2023-03-19T14:40:16;15.00;99.90
25192;DHT22;13143;50.924;5.320;2023-03-19T14:43:02;15.00;99.90
25192;DHT22;13143;50.924;5.320;2023-03-19T14:50:56;15.00;99.90
25192;DHT22;13143;50.924;5.320;2023-03-19T14:56:19;14.90;99.90
25192;DHT22;13143;50.924;5.320;2023-03-19T14:58:51;14.90;99.90
25192;DHT22;13143;50.924;5.320;2023-03-19T15:01:18;14.90;99.90
25192;DHT22;13143;50.924;5.320;2023-03-19T15:03:44;14.90;99.90
25192;DHT22;13143;50.924;5.320;2023-03-19T15:06:12;14.90;99.90
25192;DHT22;13143;50.924;5.320;2023-03-19T15:08:39;14.90;99.90
25192;DHT22;13143;50.924;5.320;2023-03-19T15:13:47;14.90;99.90
25192;DHT22;13143;50.924;5.320;2023-03-19T15:18:48;14.90;99.90
25192;DHT22;13143;50.924;5.320;2023-03-19T15:21:14;14.90;99.90
25192;DHT22;13143;50.924;5.320;2023-03-19T15:23:43;14.90;99.90
25192;DHT22;13143;50.924;5.320;2023-03-19T15:26:09;14.90;99.90
25192;DHT22;13143;50.924;5.320;2023-03-19T15:28:48;14.90;99.90
25192;DHT22;13143;50.924;5.320;2023-03-19T15:31:14;14.90;99.90
25192;DHT22;13143;50.924;5.320;2023-03-19T15:33:42;14.90;99.90
25192;DHT22;13143;50.924;5.320;2023-03-19T15:38:54;14.90;99.90
25192;DHT22;13143;50.924;5.320;2023-03-19T15:41:24;14.90;99.90
25192;DHT22;13143;50.924;5.320;2023-03-19T15:43:50;14.90;99.90
25192;DHT22;13143;50.924;5.320;2023-03-19T15:46:22;14.90;99.90
25192;DHT22;13143;50.924;5.320;2023-03-19T15:49:01;14.90;99.90
25192;DHT22;13143;50.924;5.320;2023-03-19T15:51:28;14.80;99.90
25192;DHT22;13143;50.924;5.320;2023-03-19T15:53:55;14.80;99.90
25192;DHT22;13143;50.924;5.320;2023-03-19T15:56:22;14.80;99.90
25192;DHT22;13143;50.924;5.320;2023-03-19T15:58:50;14.80;99.90
25192;DHT22;13143;50.924;5.320;2023-03-19T16:01:17;14.80;99.90
25192;DHT22;13143;50.924;5.320;2023-03-19T16:04:02;14.80;99.90
25192;DHT22;13143;50.924;5.320;2023-03-19T16:06:30;14.80;99.90
25192;DHT22;13143;50.924;5.320;2023-03-19T16:11:55;14.80;99.90
25192;DHT22;13143;50.924;5.320;2023-03-19T16:19:46;14.80;99.90
25192;DHT22;13143;50.924;5.320;2023-03-19T16:22:20;14.80;99.90
25192;DHT22;13143;50.924;5.320;2023-03-19T16:24:46;14.80;99.90
25192;DHT22;13143;50.924;5.320;2023-03-19T16:27:18;14.80;99.90
25192;DHT22;13143;50.924;5.320;2023-03-19T16:29:47;14.80;99.90
25192;DHT22;13143;50.924;5.320;2023-03-19T16:32:20;14.80;99.90
25192;DHT22;13143;50.924;5.320;2023-03-19T16:37:44;14.80;99.90
25192;DHT22;13143;50.924;5.320;2023-03-19T16:42:50;14.80;99.90
25192;DHT22;13143;50.924;5.320;2023-03-19T16:45:26;14.80;99.90
25192;DHT22;13143;50.924;5.320;2023-03-19T16:47:54;14.70;99.90
25192;DHT22;13143;50.924;5.320;2023-03-19T16:50:35;14.70;99.90
25192;DHT22;13143;50.924;5.320;2023-03-19T16:53:04;14.70;99.90
25192;DHT22;13143;50.924;5.320;2023-03-19T16:55:34;14.70;99.90
25192;DHT22;13143;50.924;5.320;2023-03-19T17:00:28;14.70;99.90
25192;DHT22;13143;50.924;5.320;2023-03-19T17:02:54;14.70;99.90
25192;DHT22;13143;50.924;5.320;2023-03-19T17:05:21;14.70;99.90
25192;DHT22;13143;50.924;5.320;2023-03-19T17:07:47;14.60;99.90
25192;DHT22;13143;50.924;5.320;2023-03-19T17:10:19;14.60;99.90
25192;DHT22;13143;50.924;5.320;2023-03-19T17:12:47;14.60;99.90
25192;DHT22;13143;50.924;5.320;2023-03-19T17:17:52;14.60;99.90
25192;DHT22;13143;50.924;5.320;2023-03-19T17:20:21;14.60;99.90
25192;DHT22;13143;50.924;5.320;2023-03-19T17:22:47;14.60;99.90
25192;DHT22;13143;50.924;5.320;2023-03-19T17:25:14;14.60;99.90
25192;DHT22;13143;50.924;5.320;2023-03-19T17:27:42;14.50;99.90
25192;DHT22;13143;50.924;5.320;2023-03-19T17:30:09;14.50;99.90
25192;DHT22;13143;50.924;5.320;2023-03-19T17:32:35;14.50;99.90
25192;DHT22;13143;50.924;5.320;2023-03-19T17:35:02;14.50;99.90
25192;DHT22;13143;50.924;5.320;2023-03-19T17:37:28;14.50;99.90
25192;DHT22;13143;50.924;5.320;2023-03-19T17:39:55;14.50;99.90
25192;DHT22;13143;50.924;5.320;2023-03-19T17:42:22;14.50;99.90
25192;DHT22;13143;50.924;5.320;2023-03-19T17:44:49;14.40;99.90
25192;DHT22;13143;50.924;5.320;2023-03-19T17:47:16;14.40;99.90
25192;DHT22;13143;50.924;5.320;2023-03-19T17:49:42;14.40;99.90
25192;DHT22;13143;50.924;5.320;2023-03-19T17:52:16;14.40;99.90